sensor_id;sensor_type;location;lat;lon;timestamp;P1;durP1;ratioP1;P2;durP2;ratioP2
80231;SDS011;74189;42.124;24.752;2023-11-22T00:02:21;36.65;;;16.70;;
80231;SDS011;74189;42.124;24.752;2023-11-22T00:04:47;45.75;;;21.48;;
80231;SDS011;74189;42.124;24.752;2023-11-22T00:07:13;38.03;;;18.23;;
80231;SDS011;74189;42.124;24.752;2023-11-22T00:09:38;32.25;;;15.25;;
80231;SDS011;74189;42.124;24.752;2023-11-22T00:12:04;26.95;;;14.18;;
80231;SDS011;74189;42.124;24.752;2023-11-22T00:14:31;34.35;;;15.45;;
80231;SDS011;74189;42.124;24.752;2023-11-22T00:16:56;25.38;;;13.23;;
80231;SDS011;74189;42.124;24.752;2023-11-22T00:19:22;27.25;;;13.85;;
80231;SDS011;74189;42.124;24.752;2023-11-22T00:21:48;21.92;;;12.40;;
80231;SDS011;74189;42.124;24.752;2023-11-22T00:24:14;22.40;;;12.50;;
80231;SDS011;74189;42.124;24.752;2023-11-22T00:26:40;27.08;;;13.90;;
80231;SDS011;74189;42.124;24.752;2023-11-22T00:29:06;24.30;;;13.35;;
80231;SDS011;74189;42.124;24.752;2023-11-22T00:31:32;29.90;;;13.98;;
80231;SDS011;74189;42.124;24.752;2023-11-22T00:33:57;26.58;;;13.30;;
80231;SDS011;74189;42.124;24.752;2023-11-22T00:36:23;25.55;;;13.18;;
80231;SDS011;74189;42.124;24.752;2023-11-22T00:38:49;23.92;;;13.30;;
80231;SDS011;74189;42.124;24.752;2023-11-22T00:41:14;25.67;;;12.50;;
80231;SDS011;74189;42.124;24.752;2023-11-22T00:43:40;22.75;;;12.70;;
80231;SDS011;74189;42.124;24.752;2023-11-22T00:46:06;22.58;;;12.30;;
80231;SDS011;74189;42.124;24.752;2023-11-22T00:48:32;23.40;;;12.25;;
80231;SDS011;74189;42.124;24.752;2023-11-22T00:50:57;19.55;;;11.65;;
80231;SDS011;74189;42.124;24.752;2023-11-22T00:53:23;21.55;;;12.20;;
80231;SDS011;74189;42.124;24.752;2023-11-22T00:55:49;20.33;;;11.15;;
80231;SDS011;74189;42.124;24.752;2023-11-22T00:58:15;22.80;;;12.45;;
80231;SDS011;74189;42.124;24.752;2023-11-22T01:00:41;27.23;;;12.90;;
80231;SDS011;74189;42.124;24.752;2023-11-22T01:03:06;19.83;;;11.93;;
80231;SDS011;74189;42.124;24.752;2023-11-22T01:05:36;25.33;;;12.07;;
80231;SDS011;74189;42.124;24.752;2023-11-22T01:08:02;24.42;;;12.40;;
80231;SDS011;74189;42.124;24.752;2023-11-22T01:10:28;23.83;;;12.13;;
80231;SDS011;74189;42.124;24.752;2023-11-22T01:12:55;23.17;;;12.20;;
80231;SDS011;74189;42.124;24.752;2023-11-22T01:15:20;19.77;;;11.38;;
80231;SDS011;74189;42.124;24.752;2023-11-22T01:17:46;25.70;;;11.68;;
80231;SDS011;74189;42.124;24.752;2023-11-22T01:20:12;19.15;;;11.00;;
80231;SDS011;74189;42.124;24.752;2023-11-22T01:22:38;32.83;;;13.55;;
80231;SDS011;74189;42.124;24.752;2023-11-22T01:25:04;20.08;;;12.23;;
80231;SDS011;74189;42.124;24.752;2023-11-22T01:27:30;21.98;;;12.05;;
80231;SDS011;74189;42.124;24.752;2023-11-22T01:29:56;22.30;;;12.23;;
80231;SDS011;74189;42.124;24.752;2023-11-22T01:32:22;23.15;;;12.23;;
80231;SDS011;74189;42.124;24.752;2023-11-22T01:34:47;24.05;;;11.75;;
80231;SDS011;74189;42.124;24.752;2023-11-22T01:37:13;21.92;;;12.10;;
80231;SDS011;74189;42.124;24.752;2023-11-22T01:39:39;29.55;;;13.57;;
80231;SDS011;74189;42.124;24.752;2023-11-22T01:42:06;20.13;;;11.30;;
80231;SDS011;74189;42.124;24.752;2023-11-22T01:44:32;23.10;;;11.88;;
80231;SDS011;74189;42.124;24.752;2023-11-22T01:46:58;20.60;;;11.77;;
80231;SDS011;74189;42.124;24.752;2023-11-22T01:49:24;22.02;;;11.38;;
80231;SDS011;74189;42.124;24.752;2023-11-22T01:51:49;21.58;;;11.48;;
80231;SDS011;74189;42.124;24.752;2023-11-22T01:54:18;18.35;;;10.20;;
80231;SDS011;74189;42.124;24.752;2023-11-22T01:56:48;21.52;;;11.18;;
80231;SDS011;74189;42.124;24.752;2023-11-22T01:59:15;19.98;;;10.43;;
80231;SDS011;74189;42.124;24.752;2023-11-22T02:01:42;22.48;;;10.75;;
80231;SDS011;74189;42.124;24.752;2023-11-22T02:04:08;18.10;;;10.48;;
80231;SDS011;74189;42.124;24.752;2023-11-22T02:06:34;21.55;;;10.63;;
80231;SDS011;74189;42.124;24.752;2023-11-22T02:09:00;22.52;;;10.23;;
80231;SDS011;74189;42.124;24.752;2023-11-22T02:11:26;20.23;;;11.93;;
80231;SDS011;74189;42.124;24.752;2023-11-22T02:13:52;21.23;;;11.18;;
80231;SDS011;74189;42.124;24.752;2023-11-22T02:16:18;21.60;;;12.13;;
80231;SDS011;74189;42.124;24.752;2023-11-22T02:18:45;24.30;;;12.27;;
80231;SDS011;74189;42.124;24.752;2023-11-22T02:21:11;24.27;;;11.50;;
80231;SDS011;74189;42.124;24.752;2023-11-22T02:23:36;26.85;;;11.85;;
80231;SDS011;74189;42.124;24.752;2023-11-22T02:26:02;24.13;;;12.60;;
80231;SDS011;74189;42.124;24.752;2023-11-22T02:28:28;25.27;;;12.57;;
80231;SDS011;74189;42.124;24.752;2023-11-22T02:30:53;33.55;;;13.48;;
80231;SDS011;74189;42.124;24.752;2023-11-22T02:33:22;27.58;;;13.55;;
80231;SDS011;74189;42.124;24.752;2023-11-22T02:35:48;24.45;;;13.48;;
80231;SDS011;74189;42.124;24.752;2023-11-22T02:38:14;26.92;;;13.43;;
80231;SDS011;74189;42.124;24.752;2023-11-22T02:40:42;24.13;;;13.85;;
80231;SDS011;74189;42.124;24.752;2023-11-22T02:43:08;23.30;;;13.57;;
80231;SDS011;74189;42.124;24.752;2023-11-22T02:45:34;26.08;;;13.88;;
80231;SDS011;74189;42.124;24.752;2023-11-22T02:47:59;25.25;;;13.40;;
80231;SDS011;74189;42.124;24.752;2023-11-22T02:50:28;22.38;;;12.60;;
80231;SDS011;74189;42.124;24.752;2023-11-22T02:52:56;23.23;;;13.77;;
80231;SDS011;74189;42.124;24.752;2023-11-22T02:55:22;23.02;;;13.45;;
80231;SDS011;74189;42.124;24.752;2023-11-22T02:57:49;29.27;;;13.38;;
80231;SDS011;74189;42.124;24.752;2023-11-22T03:00:16;26.90;;;12.93;;
80231;SDS011;74189;42.124;24.752;2023-11-22T03:02:43;29.73;;;13.77;;
80231;SDS011;74189;42.124;24.752;2023-11-22T03:05:11;25.27;;;12.90;;
80231;SDS011;74189;42.124;24.752;2023-11-22T03:07:39;25.48;;;13.60;;
80231;SDS011;74189;42.124;24.752;2023-11-22T03:10:06;27.80;;;13.80;;
80231;SDS011;74189;42.124;24.752;2023-11-22T03:12:32;26.55;;;13.32;;
80231;SDS011;74189;42.124;24.752;2023-11-22T03:14:58;20.70;;;12.52;;
80231;SDS011;74189;42.124;24.752;2023-11-22T03:17:27;23.02;;;13.32;;
80231;SDS011;74189;42.124;24.752;2023-11-22T03:19:53;23.10;;;13.27;;
80231;SDS011;74189;42.124;24.752;2023-11-22T03:22:23;25.88;;;12.75;;
80231;SDS011;74189;42.124;24.752;2023-11-22T03:24:49;24.55;;;13.13;;
80231;SDS011;74189;42.124;24.752;2023-11-22T03:27:15;25.55;;;13.23;;
80231;SDS011;74189;42.124;24.752;2023-11-22T03:29:41;27.27;;;12.95;;
80231;SDS011;74189;42.124;24.752;2023-11-22T03:32:07;26.08;;;12.38;;
80231;SDS011;74189;42.124;24.752;2023-11-22T03:34:33;21.27;;;12.77;;
80231;SDS011;74189;42.124;24.752;2023-11-22T03:36:58;26.58;;;13.32;;
80231;SDS011;74189;42.124;24.752;2023-11-22T03:39:24;27.13;;;12.85;;
80231;SDS011;74189;42.124;24.752;2023-11-22T03:41:50;22.15;;;11.45;;
80231;SDS011;74189;42.124;24.752;2023-11-22T03:44:16;22.77;;;12.27;;
80231;SDS011;74189;42.124;24.752;2023-11-22T03:46:42;25.05;;;12.95;;
80231;SDS011;74189;42.124;24.752;2023-11-22T03:49:07;24.48;;;11.77;;
80231;SDS011;74189;42.124;24.752;2023-11-22T03:51:33;23.25;;;12.70;;
80231;SDS011;74189;42.124;24.752;2023-11-22T03:54:00;21.73;;;11.32;;
80231;SDS011;74189;42.124;24.752;2023-11-22T03:56:27;23.05;;;12.18;;
80231;SDS011;74189;42.124;24.752;2023-11-22T03:58:53;25.23;;;11.63;;
80231;SDS011;74189;42.124;24.752;2023-11-22T04:01:19;22.98;;;11.38;;
80231;SDS011;74189;42.124;24.752;2023-11-22T04:03:45;24.60;;;11.10;;
80231;SDS011;74189;42.124;24.752;2023-11-22T04:06:13;20.17;;;11.07;;
80231;SDS011;74189;42.124;24.752;2023-11-22T04:08:42;22.23;;;11.82;;
80231;SDS011;74189;42.124;24.752;2023-11-22T04:11:09;18.92;;;11.25;;
80231;SDS011;74189;42.124;24.752;2023-11-22T04:13:35;16.27;;;9.52;;
80231;SDS011;74189;42.124;24.752;2023-11-22T04:16:00;18.38;;;10.60;;
80231;SDS011;74189;42.124;24.752;2023-11-22T04:18:26;20.92;;;10.52;;
80231;SDS011;74189;42.124;24.752;2023-11-22T04:20:52;15.38;;;8.90;;
80231;SDS011;74189;42.124;24.752;2023-11-22T04:23:18;25.95;;;10.57;;
80231;SDS011;74189;42.124;24.752;2023-11-22T04:25:43;19.33;;;10.20;;
80231;SDS011;74189;42.124;24.752;2023-11-22T04:28:09;16.10;;;9.82;;
80231;SDS011;74189;42.124;24.752;2023-11-22T04:30:35;21.98;;;10.10;;
80231;SDS011;74189;42.124;24.752;2023-11-22T04:33:01;16.88;;;10.15;;
80231;SDS011;74189;42.124;24.752;2023-11-22T04:35:27;24.20;;;11.10;;
80231;SDS011;74189;42.124;24.752;2023-11-22T04:37:53;24.30;;;11.05;;
80231;SDS011;74189;42.124;24.752;2023-11-22T04:40:20;27.45;;;11.52;;
80231;SDS011;74189;42.124;24.752;2023-11-22T04:42:46;23.42;;;12.15;;
80231;SDS011;74189;42.124;24.752;2023-11-22T04:45:13;22.85;;;11.13;;
80231;SDS011;74189;42.124;24.752;2023-11-22T04:47:39;25.55;;;11.80;;
80231;SDS011;74189;42.124;24.752;2023-11-22T04:50:05;28.77;;;12.98;;
80231;SDS011;74189;42.124;24.752;2023-11-22T04:52:31;23.75;;;12.63;;
80231;SDS011;74189;42.124;24.752;2023-11-22T04:54:57;27.75;;;12.55;;
80231;SDS011;74189;42.124;24.752;2023-11-22T04:57:23;32.20;;;13.00;;
80231;SDS011;74189;42.124;24.752;2023-11-22T04:59:49;22.67;;;11.20;;
80231;SDS011;74189;42.124;24.752;2023-11-22T05:02:14;26.58;;;13.77;;
80231;SDS011;74189;42.124;24.752;2023-11-22T05:04:41;25.70;;;12.38;;
80231;SDS011;74189;42.124;24.752;2023-11-22T05:07:07;26.98;;;11.95;;
80231;SDS011;74189;42.124;24.752;2023-11-22T05:09:33;23.50;;;11.90;;
80231;SDS011;74189;42.124;24.752;2023-11-22T05:11:59;26.92;;;13.00;;
80231;SDS011;74189;42.124;24.752;2023-11-22T05:14:25;24.13;;;12.82;;
80231;SDS011;74189;42.124;24.752;2023-11-22T05:16:51;22.20;;;11.93;;
80231;SDS011;74189;42.124;24.752;2023-11-22T05:19:17;24.10;;;12.95;;
80231;SDS011;74189;42.124;24.752;2023-11-22T05:21:42;31.20;;;11.93;;
80231;SDS011;74189;42.124;24.752;2023-11-22T05:24:08;29.20;;;13.05;;
80231;SDS011;74189;42.124;24.752;2023-11-22T05:26:34;26.80;;;13.10;;
80231;SDS011;74189;42.124;24.752;2023-11-22T05:29:00;27.33;;;13.88;;
80231;SDS011;74189;42.124;24.752;2023-11-22T05:31:25;28.38;;;13.00;;
80231;SDS011;74189;42.124;24.752;2023-11-22T05:33:51;24.33;;;13.32;;
80231;SDS011;74189;42.124;24.752;2023-11-22T05:36:16;27.40;;;13.63;;
80231;SDS011;74189;42.124;24.752;2023-11-22T05:38:42;29.02;;;13.02;;
80231;SDS011;74189;42.124;24.752;2023-11-22T05:41:08;24.83;;;13.90;;
80231;SDS011;74189;42.124;24.752;2023-11-22T05:43:34;25.63;;;14.02;;
80231;SDS011;74189;42.124;24.752;2023-11-22T05:46:02;33.78;;;14.93;;
80231;SDS011;74189;42.124;24.752;2023-11-22T05:48:28;24.08;;;13.98;;
80231;SDS011;74189;42.124;24.752;2023-11-22T05:50:54;26.52;;;14.55;;
80231;SDS011;74189;42.124;24.752;2023-11-22T05:53:19;26.40;;;14.43;;
80231;SDS011;74189;42.124;24.752;2023-11-22T05:55:46;25.05;;;14.52;;
80231;SDS011;74189;42.124;24.752;2023-11-22T05:58:15;23.33;;;14.18;;
80231;SDS011;74189;42.124;24.752;2023-11-22T06:00:45;29.15;;;14.23;;
80231;SDS011;74189;42.124;24.752;2023-11-22T06:03:11;25.95;;;14.70;;
80231;SDS011;74189;42.124;24.752;2023-11-22T06:05:38;29.92;;;15.27;;
80231;SDS011;74189;42.124;24.752;2023-11-22T06:08:06;28.50;;;15.85;;
80231;SDS011;74189;42.124;24.752;2023-11-22T06:10:31;28.00;;;15.23;;
80231;SDS011;74189;42.124;24.752;2023-11-22T06:12:57;29.15;;;15.55;;
80231;SDS011;74189;42.124;24.752;2023-11-22T06:15:23;37.72;;;16.15;;
80231;SDS011;74189;42.124;24.752;2023-11-22T06:17:48;26.40;;;15.68;;
80231;SDS011;74189;42.124;24.752;2023-11-22T06:20:14;27.30;;;16.23;;
80231;SDS011;74189;42.124;24.752;2023-11-22T06:22:40;29.70;;;16.13;;
80231;SDS011;74189;42.124;24.752;2023-11-22T06:25:16;27.33;;;14.82;;
80231;SDS011;74189;42.124;24.752;2023-11-22T06:27:42;31.30;;;16.65;;
80231;SDS011;74189;42.124;24.752;2023-11-22T06:30:08;24.83;;;15.48;;
80231;SDS011;74189;42.124;24.752;2023-11-22T06:32:34;30.38;;;16.08;;
80231;SDS011;74189;42.124;24.752;2023-11-22T06:35:00;30.13;;;16.15;;
80231;SDS011;74189;42.124;24.752;2023-11-22T06:37:25;27.98;;;15.60;;
80231;SDS011;74189;42.124;24.752;2023-11-22T06:39:51;28.70;;;16.80;;
80231;SDS011;74189;42.124;24.752;2023-11-22T06:42:17;27.25;;;16.38;;
80231;SDS011;74189;42.124;24.752;2023-11-22T06:44:44;27.63;;;16.05;;
80231;SDS011;74189;42.124;24.752;2023-11-22T06:47:13;28.88;;;17.02;;
80231;SDS011;74189;42.124;24.752;2023-11-22T06:49:38;28.55;;;15.75;;
80231;SDS011;74189;42.124;24.752;2023-11-22T06:52:04;27.50;;;15.38;;
80231;SDS011;74189;42.124;24.752;2023-11-22T06:54:30;30.75;;;16.35;;
80231;SDS011;74189;42.124;24.752;2023-11-22T06:56:56;29.15;;;15.98;;
80231;SDS011;74189;42.124;24.752;2023-11-22T06:59:22;33.33;;;16.15;;
80231;SDS011;74189;42.124;24.752;2023-11-22T07:01:48;37.13;;;16.48;;
80231;SDS011;74189;42.124;24.752;2023-11-22T07:04:13;35.40;;;17.20;;
80231;SDS011;74189;42.124;24.752;2023-11-22T07:06:39;37.05;;;17.33;;
80231;SDS011;74189;42.124;24.752;2023-11-22T07:09:05;39.88;;;15.95;;
80231;SDS011;74189;42.124;24.752;2023-11-22T07:11:34;29.42;;;15.43;;
80231;SDS011;74189;42.124;24.752;2023-11-22T07:14:02;33.80;;;15.93;;
80231;SDS011;74189;42.124;24.752;2023-11-22T07:16:29;48.25;;;17.80;;
80231;SDS011;74189;42.124;24.752;2023-11-22T07:18:55;39.30;;;16.65;;
80231;SDS011;74189;42.124;24.752;2023-11-22T07:21:21;33.90;;;15.93;;
80231;SDS011;74189;42.124;24.752;2023-11-22T07:23:47;36.13;;;17.50;;
80231;SDS011;74189;42.124;24.752;2023-11-22T07:26:13;46.33;;;18.13;;
80231;SDS011;74189;42.124;24.752;2023-11-22T07:28:39;39.78;;;18.55;;
80231;SDS011;74189;42.124;24.752;2023-11-22T07:31:08;48.95;;;19.35;;
80231;SDS011;74189;42.124;24.752;2023-11-22T07:33:34;34.88;;;17.33;;
80231;SDS011;74189;42.124;24.752;2023-11-22T07:36:00;42.20;;;18.15;;
80231;SDS011;74189;42.124;24.752;2023-11-22T07:38:27;36.08;;;17.23;;
80231;SDS011;74189;42.124;24.752;2023-11-22T07:40:54;37.22;;;19.17;;
80231;SDS011;74189;42.124;24.752;2023-11-22T07:43:21;38.25;;;18.00;;
80231;SDS011;74189;42.124;24.752;2023-11-22T07:45:47;41.22;;;17.67;;
80231;SDS011;74189;42.124;24.752;2023-11-22T07:48:13;33.15;;;18.27;;
80231;SDS011;74189;42.124;24.752;2023-11-22T07:50:40;40.00;;;19.20;;
80231;SDS011;74189;42.124;24.752;2023-11-22T07:53:09;39.33;;;18.05;;
80231;SDS011;74189;42.124;24.752;2023-11-22T07:55:36;32.80;;;17.50;;
80231;SDS011;74189;42.124;24.752;2023-11-22T07:58:03;32.15;;;16.60;;
80231;SDS011;74189;42.124;24.752;2023-11-22T08:00:31;31.55;;;18.15;;
80231;SDS011;74189;42.124;24.752;2023-11-22T08:02:58;28.63;;;16.58;;
80231;SDS011;74189;42.124;24.752;2023-11-22T08:05:27;36.97;;;17.55;;
80231;SDS011;74189;42.124;24.752;2023-11-22T08:08:04;28.58;;;16.50;;
80231;SDS011;74189;42.124;24.752;2023-11-22T08:10:33;28.25;;;16.70;;
80231;SDS011;74189;42.124;24.752;2023-11-22T08:13:02;34.13;;;16.10;;
80231;SDS011;74189;42.124;24.752;2023-11-22T08:15:28;28.95;;;15.90;;
80231;SDS011;74189;42.124;24.752;2023-11-22T08:17:54;26.30;;;15.98;;
80231;SDS011;74189;42.124;24.752;2023-11-22T08:20:20;30.75;;;15.52;;
80231;SDS011;74189;42.124;24.752;2023-11-22T08:22:46;28.05;;;15.85;;
80231;SDS011;74189;42.124;24.752;2023-11-22T08:25:15;33.10;;;16.23;;
80231;SDS011;74189;42.124;24.752;2023-11-22T08:27:41;26.42;;;16.13;;
80231;SDS011;74189;42.124;24.752;2023-11-22T08:30:08;27.50;;;15.15;;
80231;SDS011;74189;42.124;24.752;2023-11-22T08:32:41;31.63;;;15.38;;
80231;SDS011;74189;42.124;24.752;2023-11-22T08:35:08;25.10;;;14.70;;
80231;SDS011;74189;42.124;24.752;2023-11-22T08:37:35;27.80;;;15.07;;
80231;SDS011;74189;42.124;24.752;2023-11-22T08:40:03;24.98;;;15.10;;
80231;SDS011;74189;42.124;24.752;2023-11-22T08:42:30;25.70;;;15.27;;
80231;SDS011;74189;42.124;24.752;2023-11-22T08:44:56;39.17;;;15.43;;
80231;SDS011;74189;42.124;24.752;2023-11-22T08:47:21;34.55;;;16.42;;
80231;SDS011;74189;42.124;24.752;2023-11-22T08:49:47;28.20;;;16.65;;
80231;SDS011;74189;42.124;24.752;2023-11-22T08:52:13;28.92;;;15.45;;
80231;SDS011;74189;42.124;24.752;2023-11-22T08:54:39;25.48;;;15.23;;
80231;SDS011;74189;42.124;24.752;2023-11-22T08:57:06;29.27;;;15.25;;
80231;SDS011;74189;42.124;24.752;2023-11-22T08:59:32;41.83;;;18.00;;
80231;SDS011;74189;42.124;24.752;2023-11-22T09:02:03;28.92;;;15.95;;
80231;SDS011;74189;42.124;24.752;2023-11-22T09:04:29;27.35;;;16.52;;
80231;SDS011;74189;42.124;24.752;2023-11-22T09:06:56;29.05;;;16.55;;
80231;SDS011;74189;42.124;24.752;2023-11-22T09:09:22;33.10;;;16.05;;
80231;SDS011;74189;42.124;24.752;2023-11-22T09:11:55;31.23;;;15.75;;
80231;SDS011;74189;42.124;24.752;2023-11-22T09:14:24;30.45;;;17.48;;
80231;SDS011;74189;42.124;24.752;2023-11-22T09:16:50;34.58;;;16.45;;
80231;SDS011;74189;42.124;24.752;2023-11-22T09:19:20;33.90;;;17.08;;
80231;SDS011;74189;42.124;24.752;2023-11-22T09:21:46;31.35;;;17.65;;
80231;SDS011;74189;42.124;24.752;2023-11-22T09:24:12;38.05;;;19.65;;
80231;SDS011;74189;42.124;24.752;2023-11-22T09:26:37;39.22;;;19.95;;
80231;SDS011;74189;42.124;24.752;2023-11-22T09:29:03;50.05;;;20.38;;
80231;SDS011;74189;42.124;24.752;2023-11-22T09:31:30;53.90;;;20.55;;
80231;SDS011;74189;42.124;24.752;2023-11-22T09:33:56;51.85;;;21.52;;
80231;SDS011;74189;42.124;24.752;2023-11-22T09:36:22;70.40;;;20.95;;
80231;SDS011;74189;42.124;24.752;2023-11-22T09:38:50;50.20;;;19.48;;
80231;SDS011;74189;42.124;24.752;2023-11-22T09:41:17;34.88;;;18.63;;
80231;SDS011;74189;42.124;24.752;2023-11-22T09:43:43;40.55;;;18.33;;
80231;SDS011;74189;42.124;24.752;2023-11-22T09:46:11;34.67;;;18.08;;
80231;SDS011;74189;42.124;24.752;2023-11-22T09:48:39;36.92;;;18.15;;
80231;SDS011;74189;42.124;24.752;2023-11-22T09:56:21;56.45;;;21.13;;
80231;SDS011;74189;42.124;24.752;2023-11-22T09:58:51;54.08;;;23.08;;
80231;SDS011;74189;42.124;24.752;2023-11-22T10:01:21;42.38;;;21.48;;
80231;SDS011;74189;42.124;24.752;2023-11-22T10:03:47;59.13;;;26.42;;
80231;SDS011;74189;42.124;24.752;2023-11-22T10:06:13;52.10;;;26.77;;
80231;SDS011;74189;42.124;24.752;2023-11-22T10:08:40;48.42;;;24.77;;
80231;SDS011;74189;42.124;24.752;2023-11-22T10:11:06;32.08;;;19.23;;
80231;SDS011;74189;42.124;24.752;2023-11-22T10:13:32;35.83;;;19.20;;
80231;SDS011;74189;42.124;24.752;2023-11-22T10:18:54;27.63;;;16.35;;
80231;SDS011;74189;42.124;24.752;2023-11-22T10:21:26;28.38;;;16.38;;
80231;SDS011;74189;42.124;24.752;2023-11-22T10:23:55;28.77;;;17.02;;
80231;SDS011;74189;42.124;24.752;2023-11-22T10:26:21;30.67;;;16.20;;
80231;SDS011;74189;42.124;24.752;2023-11-22T10:28:51;32.13;;;16.52;;
80231;SDS011;74189;42.124;24.752;2023-11-22T10:31:18;26.40;;;16.73;;
80231;SDS011;74189;42.124;24.752;2023-11-22T10:33:46;30.90;;;16.50;;
80231;SDS011;74189;42.124;24.752;2023-11-22T10:36:12;29.92;;;17.48;;
80231;SDS011;74189;42.124;24.752;2023-11-22T10:38:40;35.92;;;17.40;;
80231;SDS011;74189;42.124;24.752;2023-11-22T10:41:07;34.50;;;17.30;;
80231;SDS011;74189;42.124;24.752;2023-11-22T10:43:37;28.30;;;17.75;;
80231;SDS011;74189;42.124;24.752;2023-11-22T10:46:04;33.05;;;17.10;;
80231;SDS011;74189;42.124;24.752;2023-11-22T10:48:31;28.63;;;17.95;;
80231;SDS011;74189;42.124;24.752;2023-11-22T10:51:01;28.98;;;18.17;;
80231;SDS011;74189;42.124;24.752;2023-11-22T10:53:33;35.50;;;17.60;;
80231;SDS011;74189;42.124;24.752;2023-11-22T10:56:12;34.42;;;17.58;;
80231;SDS011;74189;42.124;24.752;2023-11-22T10:58:47;30.05;;;17.20;;
80231;SDS011;74189;42.124;24.752;2023-11-22T11:01:16;35.42;;;16.45;;
80231;SDS011;74189;42.124;24.752;2023-11-22T11:03:45;29.00;;;17.30;;
80231;SDS011;74189;42.124;24.752;2023-11-22T11:06:20;29.27;;;16.85;;
80231;SDS011;74189;42.124;24.752;2023-11-22T11:08:59;34.70;;;18.30;;
80231;SDS011;74189;42.124;24.752;2023-11-22T11:11:27;35.35;;;17.92;;
80231;SDS011;74189;42.124;24.752;2023-11-22T11:13:54;35.10;;;18.67;;
80231;SDS011;74189;42.124;24.752;2023-11-22T11:16:20;37.47;;;18.83;;
80231;SDS011;74189;42.124;24.752;2023-11-22T11:18:48;34.90;;;19.67;;
80231;SDS011;74189;42.124;24.752;2023-11-22T11:21:15;37.70;;;19.35;;
80231;SDS011;74189;42.124;24.752;2023-11-22T11:23:41;36.63;;;20.25;;
80231;SDS011;74189;42.124;24.752;2023-11-22T11:26:16;33.42;;;19.10;;
80231;SDS011;74189;42.124;24.752;2023-11-22T11:28:46;40.17;;;18.45;;
80231;SDS011;74189;42.124;24.752;2023-11-22T11:31:13;38.50;;;19.23;;
80231;SDS011;74189;42.124;24.752;2023-11-22T11:36:25;31.60;;;18.60;;
80231;SDS011;74189;42.124;24.752;2023-11-22T11:38:53;38.20;;;19.10;;
80231;SDS011;74189;42.124;24.752;2023-11-22T11:41:23;37.95;;;19.92;;
80231;SDS011;74189;42.124;24.752;2023-11-22T11:43:53;40.45;;;18.70;;
80231;SDS011;74189;42.124;24.752;2023-11-22T11:46:20;39.42;;;19.70;;
80231;SDS011;74189;42.124;24.752;2023-11-22T11:48:48;58.00;;;24.33;;
80231;SDS011;74189;42.124;24.752;2023-11-22T11:51:16;43.30;;;19.98;;
80231;SDS011;74189;42.124;24.752;2023-11-22T11:53:47;31.83;;;19.05;;
80231;SDS011;74189;42.124;24.752;2023-11-22T11:56:14;39.78;;;20.35;;
80231;SDS011;74189;42.124;24.752;2023-11-22T11:58:43;36.15;;;18.90;;
80231;SDS011;74189;42.124;24.752;2023-11-22T12:01:14;33.35;;;20.13;;
80231;SDS011;74189;42.124;24.752;2023-11-22T12:03:48;34.45;;;19.05;;
80231;SDS011;74189;42.124;24.752;2023-11-22T12:06:14;36.72;;;18.33;;
80231;SDS011;74189;42.124;24.752;2023-11-22T12:08:41;36.60;;;18.58;;
80231;SDS011;74189;42.124;24.752;2023-11-22T12:11:07;34.30;;;19.27;;
80231;SDS011;74189;42.124;24.752;2023-11-22T12:13:33;38.85;;;17.95;;
80231;SDS011;74189;42.124;24.752;2023-11-22T12:16:03;37.17;;;18.45;;
80231;SDS011;74189;42.124;24.752;2023-11-22T12:18:54;28.88;;;17.52;;
80231;SDS011;74189;42.124;24.752;2023-11-22T12:21:21;36.58;;;18.83;;
80231;SDS011;74189;42.124;24.752;2023-11-22T12:23:48;43.90;;;19.33;;
80231;SDS011;74189;42.124;24.752;2023-11-22T12:26:14;33.08;;;17.85;;
80231;SDS011;74189;42.124;24.752;2023-11-22T12:28:41;29.88;;;17.58;;
80231;SDS011;74189;42.124;24.752;2023-11-22T12:31:11;35.97;;;18.05;;
80231;SDS011;74189;42.124;24.752;2023-11-22T12:33:39;41.40;;;17.88;;
80231;SDS011;74189;42.124;24.752;2023-11-22T12:36:06;31.95;;;17.23;;
80231;SDS011;74189;42.124;24.752;2023-11-22T12:38:36;34.38;;;18.88;;
80231;SDS011;74189;42.124;24.752;2023-11-22T12:41:02;38.70;;;19.83;;
80231;SDS011;74189;42.124;24.752;2023-11-22T12:43:31;33.90;;;19.60;;
80231;SDS011;74189;42.124;24.752;2023-11-22T12:46:07;38.70;;;19.38;;
80231;SDS011;74189;42.124;24.752;2023-11-22T12:48:36;33.17;;;19.50;;
80231;SDS011;74189;42.124;24.752;2023-11-22T12:51:02;38.42;;;19.92;;
80231;SDS011;74189;42.124;24.752;2023-11-22T12:53:39;35.67;;;20.05;;
80231;SDS011;74189;42.124;24.752;2023-11-22T12:56:05;43.38;;;20.25;;
80231;SDS011;74189;42.124;24.752;2023-11-22T12:58:32;32.88;;;20.70;;
80231;SDS011;74189;42.124;24.752;2023-11-22T13:00:58;39.50;;;20.98;;
80231;SDS011;74189;42.124;24.752;2023-11-22T13:03:25;39.22;;;22.55;;
80231;SDS011;74189;42.124;24.752;2023-11-22T13:05:51;40.85;;;22.60;;
80231;SDS011;74189;42.124;24.752;2023-11-22T13:08:17;46.50;;;23.70;;
80231;SDS011;74189;42.124;24.752;2023-11-22T13:10:44;41.70;;;22.23;;
80231;SDS011;74189;42.124;24.752;2023-11-22T13:13:19;40.53;;;23.05;;
80231;SDS011;74189;42.124;24.752;2023-11-22T13:15:49;41.78;;;22.45;;
80231;SDS011;74189;42.124;24.752;2023-11-22T13:18:15;46.58;;;24.48;;
80231;SDS011;74189;42.124;24.752;2023-11-22T13:20:41;37.83;;;22.48;;
80231;SDS011;74189;42.124;24.752;2023-11-22T13:23:08;38.80;;;23.10;;
80231;SDS011;74189;42.124;24.752;2023-11-22T13:25:34;42.83;;;22.70;;
80231;SDS011;74189;42.124;24.752;2023-11-22T13:28:00;45.45;;;22.65;;
80231;SDS011;74189;42.124;24.752;2023-11-22T13:30:25;41.38;;;22.17;;
80231;SDS011;74189;42.124;24.752;2023-11-22T13:32:52;36.47;;;21.05;;
80231;SDS011;74189;42.124;24.752;2023-11-22T13:35:21;37.70;;;21.92;;
80231;SDS011;74189;42.124;24.752;2023-11-22T13:37:47;41.40;;;21.38;;
80231;SDS011;74189;42.124;24.752;2023-11-22T13:40:17;41.97;;;20.17;;
80231;SDS011;74189;42.124;24.752;2023-11-22T13:42:47;42.63;;;20.17;;
80231;SDS011;74189;42.124;24.752;2023-11-22T13:45:15;33.38;;;19.70;;
80231;SDS011;74189;42.124;24.752;2023-11-22T13:47:45;49.22;;;21.23;;
80231;SDS011;74189;42.124;24.752;2023-11-22T13:50:12;43.25;;;21.85;;
80231;SDS011;74189;42.124;24.752;2023-11-22T13:53:02;39.70;;;19.73;;
80231;SDS011;74189;42.124;24.752;2023-11-22T13:55:29;36.65;;;19.67;;
80231;SDS011;74189;42.124;24.752;2023-11-22T13:57:59;39.22;;;21.42;;
80231;SDS011;74189;42.124;24.752;2023-11-22T14:00:26;36.15;;;19.40;;
80231;SDS011;74189;42.124;24.752;2023-11-22T14:02:57;34.30;;;18.45;;
80231;SDS011;74189;42.124;24.752;2023-11-22T14:05:29;36.05;;;19.27;;
80231;SDS011;74189;42.124;24.752;2023-11-22T14:07:56;39.50;;;19.27;;
80231;SDS011;74189;42.124;24.752;2023-11-22T14:10:22;37.63;;;21.70;;
80231;SDS011;74189;42.124;24.752;2023-11-22T14:12:50;35.97;;;20.33;;
80231;SDS011;74189;42.124;24.752;2023-11-22T14:15:17;39.08;;;19.92;;
80231;SDS011;74189;42.124;24.752;2023-11-22T14:17:44;37.95;;;19.02;;
80231;SDS011;74189;42.124;24.752;2023-11-22T14:20:14;51.40;;;20.02;;